Time;durP1;ratioP1;P1;durP2;ratioP2;P2;SDS_P1;SDS_P2;PMS_P1;PMS_P2;Temp;Humidity;BMP_temperature;BMP_pressure;BME280_temperature;BME280_humidity;BME280_pressure;Samples;Min_cycle;Max_cycle;Signal;HPM_P1;HPM_P2
2023/10/23 00:02:16;;;;;;;14.30;8.38;;;;;;;5.64;100.00;101161.75;10418229;28;20048;-79
2023/10/23 00:07:17;;;;;;;15.15;8.77;;;;;;;5.61;100.00;101173.97;10418192;28;20033;-78
2023/10/23 00:12:17;;;;;;;15.05;8.45;;;;;;;5.56;100.00;101178.38;10416988;28;20104;-78
2023/10/23 00:17:17;;;;;;;15.25;9.10;;;;;;;5.50;100.00;101192.88;10413767;28;20037;-79
2023/10/23 00:22:18;;;;;;;15.98;8.73;;;;;;;5.47;100.00;101184.06;10416095;28;20038;-79
2023/10/23 00:27:18;;;;;;;14.10;8.30;;;;;;;5.39;100.00;101170.63;10416750;28;20046;-78
2023/10/23 00:32:19;;;;;;;16.90;8.63;;;;;;;5.41;100.00;101184.09;10417509;28;20052;-80
2023/10/23 00:37:19;;;;;;;14.50;8.88;;;;;;;5.35;100.00;101193.97;10417793;28;20067;-79
2023/10/23 00:42:20;;;;;;;20.42;9.82;;;;;;;5.35;100.00;101191.22;10416389;28;20071;-80
2023/10/23 00:47:21;;;;;;;16.58;10.07;;;;;;;5.31;100.00;101194.59;10412980;28;20049;-79
2023/10/23 00:52:23;;;;;;;15.30;9.82;;;;;;;5.34;100.00;101205.94;10414010;28;20034;-78
2023/10/23 00:57:24;;;;;;;22.08;11.63;;;;;;;5.36;100.00;101209.31;10416161;28;20061;-78
2023/10/23 01:02:24;;;;;;;22.58;11.57;;;;;;;5.34;100.00;101214.13;10414310;28;20049;-79
2023/10/23 01:07:25;;;;;;;18.83;11.73;;;;;;;5.32;100.00;101218.13;10416376;28;20056;-78
2023/10/23 01:12:25;;;;;;;17.55;9.88;;;;;;;5.27;100.00;101216.00;10413929;28;20040;-78
2023/10/23 01:17:25;;;;;;;16.02;9.95;;;;;;;5.22;100.00;101208.47;10413399;28;20042;-79
2023/10/23 01:22:26;;;;;;;13.80;8.98;;;;;;;5.11;100.00;101217.31;10415074;28;20045;-79
2023/10/23 01:27:26;;;;;;;15.13;9.75;;;;;;;5.04;100.00;101211.84;10415933;28;20049;-77
2023/10/23 01:32:27;;;;;;;17.67;10.38;;;;;;;5.01;100.00;101212.25;10424071;28;20049;-75
2023/10/23 01:37:27;;;;;;;17.38;10.80;;;;;;;4.97;100.00;101211.00;10421214;28;20049;-77
2023/10/23 01:42:31;;;;;;;14.98;10.00;;;;;;;4.93;100.00;101220.63;10422472;28;20052;-78
2023/10/23 01:47:31;;;;;;;17.83;10.25;;;;;;;4.90;100.00;101212.88;10420647;28;20069;-78
2023/10/23 01:52:32;;;;;;;19.65;9.95;;;;;;;4.85;100.00;101212.66;10437580;28;20044;-78
2023/10/23 01:57:32;;;;;;;18.25;9.27;;;;;;;4.84;100.00;101221.91;10422948;28;20057;-78
2023/10/23 02:02:33;;;;;;;26.10;10.18;;;;;;;4.79;100.00;101216.22;10422824;28;20041;-78
2023/10/23 02:07:33;;;;;;;16.63;11.18;;;;;;;4.73;100.00;101214.31;10422561;28;20044;-78
2023/10/23 02:12:34;;;;;;;14.65;9.30;;;;;;;4.70;100.00;101214.75;10417133;28;20033;-77
2023/10/23 02:17:34;;;;;;;17.83;11.63;;;;;;;4.66;100.00;101214.31;10421076;28;20056;-77
2023/10/23 02:22:35;;;;;;;15.93;10.30;;;;;;;4.67;100.00;101223.31;10421526;28;20041;-77
2023/10/23 02:27:35;;;;;;;18.13;10.90;;;;;;;4.68;100.00;101227.75;10419830;28;20046;-77
2023/10/23 02:32:36;;;;;;;19.17;11.10;;;;;;;4.66;100.00;101230.69;10422038;28;20041;-66
2023/10/23 02:37:36;;;;;;;21.05;12.95;;;;;;;4.64;100.00;101232.78;10422376;28;20056;-76
2023/10/23 02:42:37;;;;;;;23.10;12.23;;;;;;;4.65;100.00;101238.03;10420175;28;20048;-76
2023/10/23 02:47:38;;;;;;;18.60;11.07;;;;;;;4.63;100.00;101248.31;10398712;28;20048;-77
2023/10/23 02:52:38;;;;;;;20.50;12.88;;;;;;;4.70;100.00;101247.47;10429607;28;20034;-77
2023/10/23 02:57:38;;;;;;;25.20;13.30;;;;;;;4.72;100.00;101254.41;10419761;28;20064;-78
2023/10/23 03:02:39;;;;;;;24.77;13.52;;;;;;;4.73;100.00;101257.97;10421053;28;20046;-77
2023/10/23 03:07:40;;;;;;;20.05;13.93;;;;;;;4.69;100.00;101253.97;10419041;28;20045;-77
2023/10/23 03:12:41;;;;;;;20.90;13.15;;;;;;;4.66;100.00;101247.03;10419167;28;20132;-77
2023/10/23 03:17:41;;;;;;;21.08;11.73;;;;;;;4.61;100.00;101257.72;10418815;28;20044;-77
2023/10/23 03:22:42;;;;;;;19.25;11.63;;;;;;;4.59;100.00;101265.28;10418037;28;20042;-77
2023/10/23 03:27:43;;;;;;;18.48;12.30;;;;;;;4.58;100.00;101258.13;10419363;28;20048;-77
2023/10/23 03:32:43;;;;;;;19.73;11.77;;;;;;;4.62;100.00;101260.25;10419384;28;20497;-65
2023/10/23 03:37:43;;;;;;;22.77;13.00;;;;;;;4.58;100.00;101253.50;10419633;28;20044;-76
2023/10/23 03:42:44;;;;;;;21.30;13.68;;;;;;;4.21;100.00;101212.06;10417007;28;20198;-75
2023/10/23 03:47:44;;;;;;;22.65;13.15;;;;;;;4.52;100.00;101267.97;10414227;28;20048;-75
2023/10/23 03:52:45;;;;;;;19.98;12.07;;;;;;;4.54;100.00;101274.06;10416968;28;20030;-76
2023/10/23 03:57:47;;;;;;;20.63;12.65;;;;;;;4.52;100.00;101278.88;10418054;28;20045;-76
2023/10/23 04:02:47;;;;;;;19.98;11.57;;;;;;;4.49;100.00;101279.28;10416930;28;20029;-75
2023/10/23 04:07:48;;;;;;;23.33;13.90;;;;;;;4.47;100.00;101280.56;10418493;28;20045;-76
2023/10/23 04:12:48;;;;;;;22.85;13.27;;;;;;;4.54;100.00;101281.41;10416549;28;20038;-77
2023/10/23 04:17:49;;;;;;;22.27;13.30;;;;;;;4.52;100.00;101287.06;10415204;28;20033;-76
2023/10/23 04:22:49;;;;;;;20.65;12.45;;;;;;;4.47;100.00;101289.56;10417161;28;20045;-76
2023/10/23 04:27:50;;;;;;;24.00;13.70;;;;;;;4.41;100.00;101283.03;10416898;28;20052;-74
2023/10/23 04:32:50;;;;;;;22.90;12.30;;;;;;;4.40;100.00;101280.50;10415990;28;20068;-76
2023/10/23 04:37:51;;;;;;;21.58;13.73;;;;;;;4.36;100.00;101290.13;10414358;28;20045;-77
2023/10/23 04:42:51;;;;;;;24.17;14.32;;;;;;;4.34;100.00;101290.34;10412461;28;20044;-77
2023/10/23 04:47:52;;;;;;;25.15;14.45;;;;;;;4.33;100.00;101287.81;10413031;28;20041;-77
2023/10/23 04:52:52;;;;;;;25.52;14.55;;;;;;;4.23;100.00;101285.47;10416118;28;20058;-76
2023/10/23 04:57:52;;;;;;;24.77;13.65;;;;;;;4.14;100.00;101283.97;10416292;28;20040;-77
2023/10/23 05:02:53;;;;;;;23.48;13.45;;;;;;;4.08;100.00;101271.97;10416084;28;20040;-76
2023/10/23 05:07:53;;;;;;;24.48;13.35;;;;;;;3.98;100.00;101268.78;10415124;28;20133;-77
2023/10/23 05:12:54;;;;;;;23.02;14.23;;;;;;;3.90;100.00;101271.66;10415628;28;20548;-76
2023/10/23 05:17:54;;;;;;;27.58;15.10;;;;;;;3.84;100.00;101276.88;10415279;28;20044;-75
2023/10/23 05:22:55;;;;;;;26.90;16.77;;;;;;;3.89;100.00;101294.50;10415714;28;20045;-77
2023/10/23 05:27:55;;;;;;;32.95;16.60;;;;;;;3.86;100.00;101279.38;10415811;28;20049;-76
2023/10/23 05:32:56;;;;;;;30.20;17.38;;;;;;;3.98;100.00;101305.03;10416412;28;20049;-76
2023/10/23 05:37:56;;;;;;;27.67;16.13;;;;;;;3.96;100.00;101298.09;10414064;28;20384;-76
2023/10/23 05:42:57;;;;;;;29.17;17.73;;;;;;;3.99;100.00;101297.69;10404710;28;20037;-76
2023/10/23 05:47:57;;;;;;;31.95;16.13;;;;;;;3.98;100.00;101310.47;10412980;28;20041;-77
2023/10/23 05:52:57;;;;;;;32.55;17.10;;;;;;;3.96;100.00;101315.28;10413465;28;20045;-76
2023/10/23 05:57:58;;;;;;;31.45;17.20;;;;;;;3.92;100.00;101326.78;10415239;28;20060;-76
2023/10/23 06:02:59;;;;;;;30.65;17.35;;;;;;;3.88;100.00;101325.50;10415424;28;20065;-76
2023/10/23 06:07:59;;;;;;;27.50;15.65;;;;;;;3.81;100.00;101337.19;10413844;28;20045;-76
2023/10/23 06:13:00;;;;;;;25.80;14.38;;;;;;;3.82;100.00;101341.63;10413991;28;20046;-75
2023/10/23 06:18:01;;;;;;;28.50;15.40;;;;;;;3.43;100.00;101280.38;10414721;28;20046;-76
2023/10/23 06:23:03;;;;;;;25.33;15.50;;;;;;;3.71;100.00;101349.47;10421974;28;20048;-77
2023/10/23 06:28:04;;;;;;;30.10;15.38;;;;;;;3.60;100.00;101339.97;10422274;28;20040;-76
2023/10/23 06:33:04;;;;;;;25.27;15.13;;;;;;;3.67;100.00;101362.63;10421600;28;20129;-76
2023/10/23 06:38:05;;;;;;;25.02;15.52;;;;;;;3.70;100.00;101351.38;10421203;28;20041;-76
2023/10/23 06:43:05;;;;;;;26.88;14.73;;;;;;;3.72;100.00;101360.19;10420526;28;20045;-77
2023/10/23 06:48:06;;;;;;;27.70;15.32;;;;;;;3.72;100.00;101371.06;10417227;28;20074;-77
2023/10/23 06:53:06;;;;;;;27.45;16.00;;;;;;;3.73;100.00;101367.28;10421274;28;20037;-73
2023/10/23 06:58:07;;;;;;;28.30;15.35;;;;;;;3.78;100.00;101366.69;10420532;28;20033;-76
2023/10/23 07:03:07;;;;;;;28.45;16.15;;;;;;;3.75;100.00;101359.78;10420522;28;20042;-75
2023/10/23 07:08:08;;;;;;;26.25;15.73;;;;;;;3.92;100.00;101375.81;10417770;28;20041;-75
2023/10/23 07:13:08;;;;;;;26.15;15.63;;;;;;;4.02;100.00;101381.75;10419437;28;20037;-71
2023/10/23 07:18:10;;;;;;;30.48;16.83;;;;;;;4.18;100.00;101381.47;10418299;28;20049;-76
2023/10/23 07:23:10;;;;;;;29.40;15.70;;;;;;;4.31;100.00;101382.59;10420182;28;20387;-76
2023/10/23 07:28:10;;;;;;;34.85;18.70;;;;;;;4.38;100.00;101367.09;10419696;28;20045;-76
2023/10/23 07:33:11;;;;;;;34.20;18.85;;;;;;;4.58;100.00;101375.41;10419784;28;20034;-76
2023/10/23 07:38:11;;;;;;;40.75;21.52;;;;;;;4.76;100.00;101383.03;10418582;28;20041;-76
2023/10/23 07:43:12;;;;;;;33.42;18.65;;;;;;;5.00;100.00;101373.44;10417685;28;20042;-77
2023/10/23 07:48:12;;;;;;;40.47;22.20;;;;;;;5.18;100.00;101370.16;10418139;28;20034;-77
2023/10/23 07:53:13;;;;;;;36.95;21.08;;;;;;;5.34;100.00;101375.22;10418220;28;20501;-77
2023/10/23 07:58:13;;;;;;;43.72;22.90;;;;;;;5.47;100.00;101375.22;10416614;28;20037;-79
2023/10/23 08:03:14;;;;;;;37.75;21.88;;;;;;;5.57;100.00;101372.09;10417912;28;20041;-77
2023/10/23 08:08:14;;;;;;;40.38;23.77;;;;;;;5.70;100.00;101374.00;10416286;28;20075;-65
2023/10/23 08:13:15;;;;;;;46.67;25.20;;;;;;;5.83;100.00;101368.53;10415991;28;22207;-77
2023/10/23 08:18:15;;;;;;;48.20;22.63;;;;;;;5.95;100.00;101368.75;10414715;28;20041;-77
2023/10/23 08:23:16;;;;;;;40.67;23.60;;;;;;;6.10;100.00;101373.16;10415125;28;20052;-77
2023/10/23 08:28:16;;;;;;;41.40;23.15;;;;;;;6.23;100.00;101376.72;10415134;28;20041;-76
2023/10/23 08:33:17;;;;;;;48.75;25.60;;;;;;;6.42;100.00;101382.34;10411272;28;20041;-77
2023/10/23 08:38:17;;;;;;;47.42;27.67;;;;;;;6.65;100.00;101382.69;10410387;28;20068;-77
2023/10/23 08:43:18;;;;;;;47.72;28.23;;;;;;;6.83;100.00;101365.56;10414434;28;20029;-77
2023/10/23 08:48:18;;;;;;;56.40;29.58;;;;;;;7.14;100.00;101380.38;10389239;28;20064;-77
2023/10/23 08:53:18;;;;;;;55.05;29.27;;;;;;;7.28;100.00;101379.25;10413617;28;20038;-77
2023/10/23 08:58:19;;;;;;;51.80;27.00;;;;;;;7.38;100.00;101366.94;10404681;28;20050;-73
2023/10/23 09:03:19;;;;;;;49.03;28.33;;;;;;;7.53;100.00;101369.41;10422260;28;20054;-76
2023/10/23 09:08:20;;;;;;;51.63;27.73;;;;;;;7.75;100.00;101376.19;10412406;28;20033;-76
2023/10/23 09:13:23;;;;;;;49.05;28.08;;;;;;;7.95;100.00;101380.66;10414224;28;20048;-77
2023/10/23 09:18:24;;;;;;;53.42;28.15;;;;;;;8.11;100.00;101385.56;10414067;28;20065;-77
2023/10/23 09:23:25;;;;;;;66.63;32.22;;;;;;;8.32;100.00;101398.00;10415502;28;20203;-77
2023/10/23 09:28:26;;;;;;;51.03;28.27;;;;;;;8.52;100.00;101377.81;10415619;28;20052;-77
2023/10/23 09:33:27;;;;;;;48.78;27.45;;;;;;;8.77;100.00;101388.69;10390917;28;20490;-78
2023/10/23 09:38:28;;;;;;;51.35;29.30;;;;;;;9.06;100.00;101379.66;10396908;28;20112;-77
2023/10/23 09:43:28;;;;;;;45.35;24.80;;;;;;;9.03;100.00;101327.94;10418359;28;20071;-78
2023/10/23 09:48:30;;;;;;;43.00;25.23;;;;;;;9.56;100.00;101364.75;10413886;28;20049;-78
2023/10/23 09:53:30;;;;;;;38.55;21.98;;;;;;;10.00;100.00;101380.97;10403732;28;20041;-81
2023/10/23 09:58:32;;;;;;;40.10;22.33;;;;;;;10.28;100.00;101372.00;10421348;28;20029;-76
2023/10/23 10:03:33;;;;;;;29.85;18.17;;;;;;;10.51;100.00;101371.16;10422902;28;20037;-79
2023/10/23 10:08:34;;;;;;;29.27;18.88;;;;;;;10.82;100.00;101371.81;10419917;28;20046;-78
2023/10/23 10:13:35;;;;;;;24.52;17.17;;;;;;;11.13;100.00;101353.97;10419554;28;20041;-78
2023/10/23 10:18:36;;;;;;;21.20;14.63;;;;;;;11.42;100.00;101365.00;10418371;28;20072;-73
2023/10/23 10:23:36;;;;;;;18.05;11.07;;;;;;;11.65;100.00;101372.28;10416154;28;20041;-74
2023/10/23 10:28:38;;;;;;;19.30;11.98;;;;;;;11.82;100.00;101391.59;10427145;28;20056;-74
2023/10/23 10:33:41;;;;;;;16.27;12.02;;;;;;;12.02;100.00;101393.91;10401159;28;20038;-74
2023/10/23 10:38:42;;;;;;;15.77;10.90;;;;;;;12.34;100.00;101398.81;10419599;28;20060;-74
2023/10/23 10:43:42;;;;;;;17.35;11.25;;;;;;;12.50;100.00;101389.66;10417279;28;20124;-74
2023/10/23 10:48:47;;;;;;;18.65;11.35;;;;;;;12.81;100.00;101392.84;10426050;28;20056;-74
2023/10/23 10:53:55;;;;;;;16.33;11.32;;;;;;;12.98;100.00;101392.75;10421107;28;20921;-74
2023/10/23 10:59:02;;;;;;;15.48;11.48;;;;;;;12.92;100.00;101378.06;10420045;28;20038;-74
2023/10/23 11:04:03;;;;;;;15.85;9.93;;;;;;;13.05;100.00;101372.13;10418469;28;20033;-74
2023/10/23 11:09:06;;;;;;;16.00;10.27;;;;;;;13.25;100.00;101368.75;10418074;28;20037;-72
2023/10/23 11:14:06;;;;;;;14.02;9.82;;;;;;;13.22;100.00;101354.63;10418139;28;20033;-72
2023/10/23 11:19:07;;;;;;;15.15;10.93;;;;;;;13.19;100.00;101344.91;10414324;28;20033;-73
2023/10/23 11:24:07;;;;;;;15.55;10.60;;;;;;;13.25;100.00;101346.66;10416291;28;20564;-72
2023/10/23 11:29:08;;;;;;;15.45;10.40;;;;;;;13.52;100.00;101356.91;10411022;28;20524;-72
2023/10/23 11:34:09;;;;;;;15.23;11.52;;;;;;;13.86;100.00;101351.09;10414264;28;20082;-72
2023/10/23 11:39:13;;;;;;;15.57;9.95;;;;;;;14.10;100.00;101346.00;10416066;28;20048;-73
2023/10/23 11:44:14;;;;;;;13.88;10.23;;;;;;;14.39;100.00;101352.00;10418567;28;20328;-72
2023/10/23 11:49:22;;;;;;;12.00;8.30;;;;;;;14.43;100.00;101352.31;10418034;28;20038;-73
2023/10/23 11:54:26;;;;;;;10.25;8.57;;;;;;;13.55;100.00;101242.13;10418921;28;20036;-72
2023/10/23 11:59:27;;;;;;;11.57;9.00;;;;;;;13.84;100.00;101347.75;10398740;28;20037;-72
2023/10/23 12:04:35;;;;;;;12.40;9.70;;;;;;;13.76;100.00;101337.16;10415619;28;20037;-73
2023/10/23 12:09:35;;;;;;;12.70;8.32;;;;;;;13.67;100.00;101323.00;10417135;28;20057;-73
2023/10/23 12:14:35;;;;;;;9.90;8.27;;;;;;;13.80;100.00;101322.53;10398661;28;20477;-73
2023/10/23 12:19:36;;;;;;;12.38;9.40;;;;;;;13.87;100.00;101317.63;10417117;28;20049;-73
2023/10/23 12:24:37;;;;;;;9.25;7.97;;;;;;;13.78;100.00;101313.66;10417498;28;20132;-74
2023/10/23 12:29:38;;;;;;;10.27;7.68;;;;;;;13.63;100.00;101314.38;10415256;28;20060;-73
2023/10/23 12:34:39;;;;;;;10.23;8.32;;;;;;;13.60;100.00;101314.06;10415091;28;20065;-73
2023/10/23 12:39:39;;;;;;;12.88;9.32;;;;;;;13.51;100.00;101317.31;10405212;28;20049;-72
2023/10/23 12:44:39;;;;;;;13.68;9.52;;;;;;;13.52;100.00;101310.69;10405691;28;20108;-72
2023/10/23 12:49:40;;;;;;;15.80;9.70;;;;;;;13.44;100.00;101302.06;10408548;28;20041;-73
2023/10/23 12:54:40;;;;;;;13.13;10.10;;;;;;;13.47;100.00;101310.63;10412348;28;20030;-72
2023/10/23 12:59:41;;;;;;;13.70;10.88;;;;;;;13.49;100.00;101289.09;10413639;28;20044;-67
2023/10/23 13:04:41;;;;;;;13.45;10.13;;;;;;;13.64;100.00;101279.25;10412324;28;20053;-72
2023/10/23 13:09:42;;;;;;;15.05;10.07;;;;;;;13.83;100.00;101272.19;10414466;28;20037;-72
2023/10/23 13:14:42;;;;;;;15.18;10.52;;;;;;;13.90;100.00;101266.44;10430011;28;20041;-71
2023/10/23 13:19:43;;;;;;;15.82;10.75;;;;;;;13.88;100.00;101268.63;10414321;28;20033;-72
2023/10/23 13:24:44;;;;;;;16.17;10.15;;;;;;;13.81;100.00;101257.78;10415759;28;20038;-72
2023/10/23 13:29:44;;;;;;;15.82;10.05;;;;;;;13.82;100.00;101245.59;10422271;28;20466;-72
2023/10/23 13:34:45;;;;;;;15.02;10.80;;;;;;;13.96;100.00;101261.75;10404127;28;20041;-72
2023/10/23 13:39:45;;;;;;;19.02;11.35;;;;;;;14.00;100.00;101254.59;10421298;28;20060;-72
2023/10/23 13:44:46;;;;;;;15.98;11.30;;;;;;;14.01;100.00;101245.16;10420576;28;20069;-72
2023/10/23 13:49:46;;;;;;;17.20;11.82;;;;;;;13.98;100.00;101248.50;10437532;28;20046;-71
2023/10/23 13:54:46;;;;;;;17.38;10.63;;;;;;;13.99;100.00;101233.53;10422655;28;20037;-67
2023/10/23 13:59:47;;;;;;;20.88;12.30;;;;;;;13.78;100.00;101210.44;10422852;28;21169;-72
2023/10/23 14:04:48;;;;;;;17.55;11.25;;;;;;;13.60;100.00;101217.25;10420050;28;20110;-72
2023/10/23 14:09:48;;;;;;;16.40;10.02;;;;;;;13.42;100.00;101213.81;10402121;28;20042;-72
2023/10/23 14:14:49;;;;;;;18.48;11.27;;;;;;;13.26;100.00;101207.28;10420809;28;20033;-72
2023/10/23 14:19:49;;;;;;;20.80;11.60;;;;;;;13.11;100.00;101199.69;10437053;28;20045;-72
2023/10/23 14:24:49;;;;;;;19.60;11.93;;;;;;;12.98;100.00;101200.16;10421654;28;20056;-72
2023/10/23 14:29:50;;;;;;;16.55;11.13;;;;;;;12.91;100.00;101196.75;10420609;28;20046;-73
2023/10/23 14:34:53;;;;;;;17.73;11.80;;;;;;;12.85;100.00;101181.22;10419742;28;20038;-73
2023/10/23 14:39:54;;;;;;;20.95;12.48;;;;;;;12.78;100.00;101186.16;10419535;28;20041;-73
2023/10/23 14:44:55;;;;;;;18.38;11.63;;;;;;;12.63;100.00;101181.28;10420955;28;20041;-72
2023/10/23 14:49:55;;;;;;;17.30;11.93;;;;;;;12.47;100.00;101188.59;10420991;28;20101;-73
2023/10/23 14:54:58;;;;;;;18.27;12.20;;;;;;;12.28;100.00;101166.84;10419050;28;20038;-72
2023/10/23 14:59:59;;;;;;;21.08;12.40;;;;;;;12.13;100.00;101169.41;10419707;28;20041;-72
2023/10/23 15:05:00;;;;;;;22.35;12.60;;;;;;;11.80;100.00;101129.81;10419841;28;20064;-72
2023/10/23 15:10:00;;;;;;;23.45;13.18;;;;;;;11.83;100.00;101156.88;10417770;28;20112;-72
2023/10/23 15:15:01;;;;;;;20.48;12.25;;;;;;;11.66;100.00;101151.41;10418484;28;20119;-72
2023/10/23 15:20:01;;;;;;;23.30;13.82;;;;;;;11.50;100.00;101136.56;10419947;28;20037;-73
2023/10/23 15:25:02;;;;;;;24.40;13.95;;;;;;;11.36;100.00;101135.25;10411451;28;20083;-72
2023/10/23 15:30:03;;;;;;;23.25;12.65;;;;;;;11.19;100.00;101128.94;10419110;28;20060;-72
2023/10/23 15:35:05;;;;;;;24.75;13.60;;;;;;;11.01;100.00;101111.56;10417652;28;20121;-73
2023/10/23 15:40:07;;;;;;;22.27;13.35;;;;;;;10.88;100.00;101122.94;10417669;28;20584;-72
2023/10/23 15:45:08;;;;;;;18.02;11.00;;;;;;;10.73;100.00;101118.03;10419196;28;20446;-72
2023/10/23 15:50:08;;;;;;;18.13;10.90;;;;;;;10.61;100.00;101109.81;10410586;28;20048;-72
2023/10/23 15:55:09;;;;;;;15.98;10.85;;;;;;;10.50;100.00;101108.81;10416665;28;20048;-73
2023/10/23 16:00:10;;;;;;;18.02;10.65;;;;;;;10.38;100.00;101109.97;10417807;28;20034;-73
2023/10/23 16:05:11;;;;;;;17.42;10.50;;;;;;;10.20;100.00;101108.22;10417670;28;20033;-73
2023/10/23 16:10:11;;;;;;;17.42;11.30;;;;;;;10.14;100.00;101112.78;10417509;28;20457;-73
2023/10/23 16:15:16;;;;;;;17.65;10.52;;;;;;;9.95;100.00;101092.88;10415102;28;20489;-73
2023/10/23 16:20:17;;;;;;;19.80;11.95;;;;;;;9.78;100.00;101098.34;10418087;28;20040;-72
2023/10/23 16:25:17;;;;;;;21.25;13.38;;;;;;;9.64;100.00;101091.44;10416954;28;20217;-72
2023/10/23 16:30:17;;;;;;;26.00;13.52;;;;;;;9.50;100.00;101077.94;10416780;28;20395;-73
2023/10/23 16:35:18;;;;;;;25.27;13.90;;;;;;;9.47;100.00;101074.88;10381347;28;20049;-73
2023/10/23 16:40:19;;;;;;;29.85;16.15;;;;;;;9.39;100.00;101065.06;10415011;28;20144;-73
2023/10/23 16:45:20;;;;;;;25.92;14.98;;;;;;;9.37;100.00;101064.47;10416316;28;20054;-74
2023/10/23 16:50:21;;;;;;;26.17;14.98;;;;;;;9.35;100.00;101076.81;10416813;28;20494;-73
2023/10/23 16:55:22;;;;;;;29.77;16.05;;;;;;;9.31;100.00;101065.44;10435561;28;20472;-73
2023/10/23 17:00:22;;;;;;;26.60;14.63;;;;;;;9.27;100.00;101081.56;10424623;28;20041;-74
2023/10/23 17:05:23;;;;;;;22.98;14.32;;;;;;;9.11;100.00;101078.72;10424677;28;20067;-73
2023/10/23 17:10:23;;;;;;;27.73;14.48;;;;;;;9.12;100.00;101091.41;10423887;28;20053;-72
2023/10/23 17:15:24;;;;;;;29.50;16.05;;;;;;;9.08;100.00;101089.13;10426395;28;20049;-72
2023/10/23 17:20:24;;;;;;;23.38;13.25;;;;;;;9.05;100.00;101095.09;10427456;28;20042;-73
2023/10/23 17:25:25;;;;;;;26.13;13.25;;;;;;;8.99;100.00;101071.34;10424981;28;20448;-73
2023/10/23 17:30:25;;;;;;;25.00;13.70;;;;;;;9.02;100.00;101087.31;10417369;28;20052;-72
2023/10/23 17:35:26;;;;;;;26.25;14.23;;;;;;;9.00;100.00;101086.72;10430314;28;20037;-72
2023/10/23 17:40:27;;;;;;;23.98;12.85;;;;;;;8.97;100.00;101075.38;10427455;28;20033;-72
2023/10/23 17:45:27;;;;;;;23.27;12.15;;;;;;;8.93;100.00;101075.03;10425947;28;20053;-72
2023/10/23 17:50:34;;;;;;;29.13;14.95;;;;;;;8.86;100.00;101074.31;10421223;28;20041;-73
2023/10/23 17:55:38;;;;;;;21.13;12.35;;;;;;;8.80;100.00;101064.28;10425844;28;20047;-72
2023/10/23 18:00:38;;;;;;;24.38;13.02;;;;;;;8.78;100.00;101060.94;10432644;28;20460;-72
2023/10/23 18:05:39;;;;;;;24.92;12.88;;;;;;;8.75;100.00;101050.44;10428561;28;20126;-72
2023/10/23 18:10:39;;;;;;;25.35;14.55;;;;;;;8.71;100.00;101030.84;10426510;28;20041;-72
2023/10/23 18:15:40;;;;;;;23.65;12.45;;;;;;;8.71;100.00;101025.38;10431622;28;20041;-72
2023/10/23 18:20:41;;;;;;;22.58;14.07;;;;;;;8.71;100.00;101019.06;10430779;28;20041;-72
2023/10/23 18:25:42;;;;;;;22.30;14.10;;;;;;;8.71;100.00;101016.31;10419100;28;20080;-72
2023/10/23 18:30:43;;;;;;;21.15;11.27;;;;;;;8.69;100.00;101003.63;10422136;28;20044;-73
2023/10/23 18:35:43;;;;;;;21.75;11.18;;;;;;;8.73;100.00;100995.78;10421342;28;20038;-72
2023/10/23 18:40:45;;;;;;;25.30;11.75;;;;;;;8.73;100.00;100975.72;10416506;28;20037;-73
2023/10/23 18:45:46;;;;;;;18.48;10.30;;;;;;;8.76;100.00;100958.75;10430555;28;20037;-73
2023/10/23 18:50:46;;;;;;;17.63;10.50;;;;;;;8.76;100.00;100939.56;10425550;28;20040;-72
2023/10/23 18:55:46;;;;;;;20.00;10.63;;;;;;;8.77;100.00;100927.50;10430237;28;20037;-73
2023/10/23 19:00:47;;;;;;;19.88;10.85;;;;;;;8.71;100.00;100901.03;10436572;28;20042;-73
2023/10/23 19:05:53;;;;;;;25.83;10.32;;;;;;;8.80;100.00;100905.88;10431843;28;20033;-73
2023/10/23 19:10:53;;;;;;;20.40;10.73;;;;;;;8.83;100.00;100910.06;10417416;28;20043;-71
2023/10/23 19:15:57;;;;;;;20.15;11.77;;;;;;;8.86;100.00;100887.59;10434312;28;20057;-72
2023/10/23 19:21:01;;;;;;;21.55;11.43;;;;;;;8.86;100.00;100887.59;10429682;28;20044;-72
2023/10/23 19:26:03;;;;;;;16.65;10.13;;;;;;;8.87;100.00;100892.03;10426345;28;20129;-72
2023/10/23 19:31:14;;;;;;;14.48;8.77;;;;;;;8.89;100.00;100901.69;10425457;28;20082;-72
2023/10/23 19:36:14;;;;;;;15.45;8.93;;;;;;;8.91;100.00;100903.34;10437795;28;20033;-72
2023/10/23 19:41:15;;;;;;;18.10;9.30;;;;;;;8.89;100.00;100915.44;10436412;28;20038;-73
2023/10/23 19:46:19;;;;;;;13.80;7.75;;;;;;;8.92;100.00;100919.59;10417448;28;20064;-73
2023/10/23 19:51:19;;;;;;;12.45;8.38;;;;;;;8.89;100.00;100920.09;10445646;28;20068;-73
2023/10/23 19:56:20;;;;;;;16.15;9.15;;;;;;;8.95;100.00;100935.59;10426096;28;20040;-73
2023/10/23 20:01:21;;;;;;;14.52;8.55;;;;;;;8.94;100.00;100944.06;10431398;28;20103;-73
2023/10/23 20:06:21;;;;;;;20.35;10.32;;;;;;;8.97;100.00;100949.06;10409439;28;20094;-72
2023/10/23 20:11:22;;;;;;;19.98;10.40;;;;;;;8.94;100.00;100944.91;10391147;28;20064;-73
2023/10/23 20:16:22;;;;;;;20.95;11.35;;;;;;;8.97;100.00;100949.91;10394303;28;20402;-73
2023/10/23 20:21:23;;;;;;;19.00;11.00;;;;;;;8.97;100.00;100949.91;10392993;28;20064;-73
2023/10/23 20:26:23;;;;;;;18.35;11.45;;;;;;;9.02;100.00;100943.69;10392055;28;20067;-74
2023/10/23 20:31:24;;;;;;;21.13;11.85;;;;;;;9.03;100.00;100921.50;10392538;28;20060;-65
2023/10/23 20:36:24;;;;;;;19.45;12.15;;;;;;;9.02;100.00;100910.75;10392575;28;20049;-73
2023/10/23 20:41:24;;;;;;;20.67;12.45;;;;;;;8.98;100.00;100913.13;10412553;28;20045;-73
2023/10/23 20:46:25;;;;;;;19.58;11.13;;;;;;;8.97;100.00;100888.66;10413536;28;20045;-73
2023/10/23 20:51:25;;;;;;;23.20;12.13;;;;;;;8.98;100.00;100863.69;10417375;28;20034;-73
2023/10/23 20:56:26;;;;;;;17.98;11.30;;;;;;;8.98;100.00;100863.69;10408071;28;20034;-73
2023/10/23 21:01:27;;;;;;;22.77;11.77;;;;;;;8.97;100.00;100873.03;10422663;28;20038;-73
2023/10/23 21:06:30;;;;;;;21.95;11.60;;;;;;;8.99;100.00;100872.75;10423522;28;20037;-73
2023/10/23 21:11:33;;;;;;;17.88;12.20;;;;;;;8.99;100.00;100859.91;10423293;28;20084;-72
2023/10/23 21:16:34;;;;;;;22.67;12.32;;;;;;;8.99;100.00;100859.91;10423025;28;20045;-73
2023/10/23 21:21:34;;;;;;;23.08;10.63;;;;;;;9.00;100.00;100844.25;10431999;28;20046;-74
2023/10/23 21:26:35;;;;;;;16.75;10.20;;;;;;;9.00;100.00;100830.50;10420221;28;20045;-73
2023/10/23 21:31:35;;;;;;;17.65;10.35;;;;;;;9.02;100.00;100825.59;10414919;28;20045;-73
2023/10/23 21:36:36;;;;;;;18.42;10.55;;;;;;;9.06;100.00;100824.88;10427234;28;20070;-72
2023/10/23 21:41:37;;;;;;;21.30;12.18;;;;;;;9.07;100.00;100812.81;10424874;28;20034;-72
2023/10/23 21:46:37;;;;;;;17.88;10.75;;;;;;;9.11;100.00;100799.41;10433889;28;20041;-71
2023/10/23 21:51:38;;;;;;;20.75;11.82;;;;;;;9.12;100.00;100781.84;10435190;28;20038;-73
2023/10/23 21:56:39;;;;;;;19.58;11.07;;;;;;;9.13;100.00;100766.22;10415006;28;20038;-72
2023/10/23 22:01:40;;;;;;;25.33;12.23;;;;;;;9.16;100.00;100760.22;10413992;28;20140;-73
2023/10/23 22:06:41;;;;;;;21.15;11.20;;;;;;;9.16;100.00;100739.09;10407271;28;20038;-73
2023/10/23 22:11:41;;;;;;;19.25;11.65;;;;;;;9.18;100.00;100736.09;10430600;28;20045;-73
2023/10/23 22:16:42;;;;;;;21.33;10.82;;;;;;;9.17;100.00;100716.00;10433833;28;20037;-74
2023/10/23 22:21:42;;;;;;;18.58;11.30;;;;;;;9.17;100.00;100709.69;10425813;28;20413;-73
2023/10/23 22:26:42;;;;;;;19.65;11.60;;;;;;;9.17;100.00;100690.47;10438952;28;20045;-73